Saint Petersburg, Florida
Current Conditions -  °F | °C
As of 12:53 PM on Thursday 30 Oct 2014 (Local Time) from KSPG Reporting Station
Clear Clear  
Wind Chill: 26°   Ceiling: Unl
Heat Index: 27°   Visibility: 10mi
Dew Point: 19°   Wind: 0mph
Humidity: 68%   Direction: NA
Pressure: 29.94"   Gusts: NA
Location:  27.77°N, 82.63°W
Report Text: KSPG 301653Z 00000KT 10SM CLR 26/19 A2994 RMK AO2 SLP137 T02560194
Loading
Personal Weather Stations






























Interactive Weather Map
Tropical Storm Tracking
New forecast layout! Learn more

10-Day Weather Forecast

Advertisements
Track Severe Weather on mobile